createdAt,value
2018-06-28T00:01:55.272Z,21.80
2018-06-28T00:04:22.432Z,21.60
2018-06-28T00:11:44.456Z,21.40
2018-06-28T00:14:11.651Z,21.40
2018-06-28T00:16:38.813Z,21.40
2018-06-28T00:19:05.948Z,21.40
2018-06-28T00:24:00.490Z,21.00
2018-06-28T00:26:27.712Z,20.80
2018-06-28T00:33:49.238Z,20.80
2018-06-28T00:36:16.382Z,20.70
2018-06-28T00:38:43.817Z,20.50
2018-06-28T00:41:11.041Z,20.50
2018-06-28T00:43:38.238Z,20.50
2018-06-28T00:46:05.372Z,20.60
2018-06-28T00:48:32.520Z,20.70
2018-06-28T00:50:59.730Z,20.90
2018-06-28T00:53:26.856Z,20.90
2018-06-28T00:55:54.053Z,20.90
2018-06-28T00:58:21.211Z,20.90
2018-06-28T01:00:48.499Z,20.80
2018-06-28T01:03:15.730Z,20.80
2018-06-28T01:05:42.877Z,20.80
2018-06-28T01:08:10.112Z,20.80
2018-06-28T01:10:37.273Z,20.70
2018-06-28T01:13:04.832Z,20.50
2018-06-28T01:15:31.989Z,20.50
2018-06-28T01:17:59.100Z,20.60
2018-06-28T01:20:26.286Z,20.60
2018-06-28T01:25:20.621Z,20.30
2018-06-28T01:27:47.763Z,20.30
2018-06-28T01:30:14.941Z,20.10
2018-06-28T01:32:42.143Z,20.30
2018-06-28T01:35:09.248Z,20.30
2018-06-28T01:37:36.350Z,20.50
2018-06-28T01:40:03.514Z,20.60
2018-06-28T01:42:44.189Z,20.70
2018-06-28T01:45:11.335Z,20.70
2018-06-28T01:47:38.756Z,20.60
2018-06-28T01:50:06.090Z,20.60
2018-06-28T01:52:33.238Z,20.40
2018-06-28T01:55:00.359Z,20.40
2018-06-28T01:57:27.592Z,20.50
2018-06-28T01:59:54.715Z,20.50
2018-06-28T02:02:21.934Z,20.50
2018-06-28T02:04:49.113Z,20.50
2018-06-28T02:07:16.249Z,20.50
2018-06-28T02:09:43.387Z,20.30
2018-06-28T02:12:10.539Z,20.20
2018-06-28T02:14:37.652Z,20.10
2018-06-28T02:17:04.845Z,19.80
2018-06-28T02:19:32.006Z,19.80
2018-06-28T02:21:59.099Z,20.00
2018-06-28T02:24:26.224Z,20.00
2018-06-28T02:26:53.421Z,20.10
2018-06-28T02:29:21.055Z,20.10
2018-06-28T02:31:48.206Z,20.10
2018-06-28T02:34:15.955Z,19.90
2018-06-28T02:36:43.094Z,19.70
2018-06-28T02:39:10.266Z,19.60
2018-06-28T02:41:37.401Z,19.50
2018-06-28T02:44:04.653Z,19.60
2018-06-28T02:46:31.831Z,19.70
2018-06-28T02:48:58.942Z,19.60
2018-06-28T02:51:26.094Z,19.70
2018-06-28T02:53:53.209Z,19.70
2018-06-28T02:56:20.299Z,19.80
2018-06-28T02:58:47.381Z,19.80
2018-06-28T03:01:14.465Z,19.80
2018-06-28T03:03:41.562Z,19.80
2018-06-28T03:06:08.762Z,19.70
2018-06-28T03:08:35.843Z,19.60
2018-06-28T03:11:03.901Z,19.40
2018-06-28T03:13:30.968Z,19.40
2018-06-28T03:15:58.082Z,19.30
2018-06-28T03:18:26.139Z,19.20
2018-06-28T03:20:53.220Z,19.10
2018-06-28T03:23:20.310Z,19.00
2018-06-28T03:25:47.474Z,19.00
2018-06-28T03:28:14.579Z,19.10
2018-06-28T03:33:08.812Z,19.00
2018-06-28T03:35:36.048Z,19.10
2018-06-28T03:38:03.155Z,19.20
2018-06-28T03:40:30.297Z,19.10
2018-06-28T03:42:57.371Z,19.10
2018-06-28T03:45:24.593Z,19.10
2018-06-28T03:47:51.664Z,19.10
2018-06-28T03:50:18.792Z,19.20
2018-06-28T03:52:45.999Z,19.30
2018-06-28T03:55:13.196Z,19.40
2018-06-28T03:57:41.079Z,19.40
2018-06-28T04:00:08.280Z,19.40
2018-06-28T04:02:35.530Z,19.30
2018-06-28T04:05:03.539Z,19.40
2018-06-28T04:07:30.768Z,19.50
2018-06-28T04:09:57.977Z,19.60
2018-06-28T04:14:52.257Z,19.50
2018-06-28T04:17:19.386Z,19.40
2018-06-28T04:19:46.547Z,19.30
2018-06-28T04:22:22.529Z,19.30
2018-06-28T04:24:49.784Z,19.30
2018-06-28T04:27:17.035Z,19.20
2018-06-28T04:29:44.745Z,19.30
2018-06-28T04:34:39.127Z,19.50
2018-06-28T04:37:06.359Z,19.50
2018-06-28T04:39:33.515Z,19.40
2018-06-28T04:42:00.700Z,19.60
2018-06-28T04:44:27.849Z,19.60
2018-06-28T04:46:54.948Z,19.60
2018-06-28T04:49:22.048Z,19.60
2018-06-28T04:51:49.212Z,19.40
2018-06-28T04:54:16.378Z,19.50
2018-06-28T04:56:44.168Z,19.60
2018-06-28T04:59:11.307Z,19.60
2018-06-28T05:01:38.510Z,19.70
2018-06-28T05:04:06.440Z,19.70
2018-06-28T05:06:33.811Z,19.70
2018-06-28T05:09:01.046Z,19.70
2018-06-28T05:11:28.173Z,19.80
2018-06-28T05:13:55.284Z,19.80
2018-06-28T05:16:22.665Z,19.70
2018-06-28T05:21:17.243Z,20.00
2018-06-28T05:23:44.821Z,20.00
2018-06-28T05:26:11.963Z,20.00
2018-06-28T05:28:39.165Z,20.20
2018-06-28T05:31:06.967Z,20.30
2018-06-28T05:33:34.142Z,20.30
2018-06-28T05:36:02.250Z,20.30
2018-06-28T05:38:29.424Z,20.20
2018-06-28T05:40:56.634Z,20.10
2018-06-28T05:43:23.965Z,20.20
2018-06-28T06:02:34.743Z,20.60
2018-06-28T06:05:01.914Z,20.70
2018-06-28T06:07:29.028Z,20.90
2018-06-28T06:09:56.209Z,21.00
2018-06-28T06:12:23.330Z,21.20
2018-06-28T06:14:50.561Z,21.30
2018-06-28T06:17:17.665Z,21.30
2018-06-28T06:19:44.881Z,21.30
2018-06-28T06:22:11.955Z,21.10
2018-06-28T06:24:39.549Z,21.10
2018-06-28T06:27:06.754Z,21.30
2018-06-28T06:29:33.872Z,21.30
2018-06-28T06:32:01.085Z,21.30
2018-06-28T06:34:28.291Z,21.40
2018-06-28T06:36:55.461Z,21.50
2018-06-28T06:39:23.270Z,21.50
2018-06-28T06:41:50.426Z,21.60
2018-06-28T06:44:17.615Z,21.80
2018-06-28T06:46:45.573Z,21.80
2018-06-28T06:49:13.376Z,21.80
2018-06-28T06:51:40.662Z,21.90
2018-06-28T06:54:07.867Z,21.90
2018-06-28T06:56:35.320Z,22.00
2018-06-28T06:59:02.975Z,21.90
2018-06-28T07:03:57.505Z,21.90
2018-06-28T07:06:24.745Z,22.00
2018-06-28T07:08:52.032Z,22.00
2018-06-28T07:11:19.240Z,22.10
2018-06-28T07:13:46.554Z,22.10
2018-06-28T07:16:14.847Z,22.10
2018-06-28T07:18:42.457Z,22.10
2018-06-28T07:21:09.778Z,22.20
2018-06-28T07:26:04.490Z,22.40
2018-06-28T07:28:36.069Z,22.50
2018-06-28T07:31:03.245Z,22.60
2018-06-28T07:33:30.449Z,22.60
2018-06-28T07:35:57.638Z,22.60
2018-06-28T07:38:24.934Z,22.60
2018-06-28T07:40:52.082Z,22.60
2018-06-28T07:43:19.981Z,22.70
2018-06-28T07:45:47.529Z,22.60
2018-06-28T07:48:14.698Z,22.70
2018-06-28T07:50:42.556Z,23.00
2018-06-28T07:53:09.999Z,23.00
2018-06-28T07:58:04.368Z,23.40
2018-06-28T08:00:31.550Z,23.40
2018-06-28T08:02:58.835Z,23.20
2018-06-28T08:05:26.133Z,23.20
2018-06-28T08:07:53.359Z,23.30
2018-06-28T08:10:20.665Z,23.60
2018-06-28T08:12:47.954Z,23.70
2018-06-28T08:15:15.450Z,23.80
2018-06-28T08:17:43.294Z,23.60
2018-06-28T08:20:10.470Z,23.60
2018-06-28T08:22:38.799Z,23.60
2018-06-28T08:25:06.383Z,23.80
2018-06-28T08:27:34.019Z,24.00
2018-06-28T08:30:01.195Z,24.00
2018-06-28T08:32:28.400Z,24.10
2018-06-28T08:34:55.608Z,24.10
2018-06-28T08:37:23.462Z,24.10
2018-06-28T08:39:50.956Z,24.10
2018-06-28T08:44:45.397Z,24.20
2018-06-28T08:47:13.428Z,24.20
2018-06-28T08:49:41.767Z,24.20
2018-06-28T08:52:10.114Z,24.20
2018-06-28T08:54:37.252Z,24.40
2018-06-28T08:57:04.481Z,24.30
2018-06-28T08:59:31.708Z,24.20
2018-06-28T09:01:58.915Z,24.40
2018-06-28T09:04:26.960Z,24.50
2018-06-28T09:06:54.261Z,24.50
2018-06-28T09:09:21.455Z,24.60
2018-06-28T09:11:48.807Z,24.70
2018-06-28T09:14:17.712Z,24.60
2018-06-28T09:16:44.877Z,24.60
2018-06-28T09:19:12.100Z,24.60
2018-06-28T09:21:40.223Z,24.70
2018-06-28T09:24:07.484Z,24.70
2018-06-28T09:26:34.662Z,25.00
2018-06-28T09:29:02.311Z,24.90
2018-06-28T09:31:29.538Z,24.90
2018-06-28T09:33:56.708Z,25.20
2018-06-28T09:36:24.680Z,25.30
2018-06-28T09:38:51.992Z,25.00
2018-06-28T09:41:19.280Z,24.90
2018-06-28T09:43:46.778Z,25.10
2018-06-28T09:46:14.203Z,25.40
2018-06-28T09:48:42.854Z,25.70
2018-06-28T09:51:10.068Z,26.00
2018-06-28T09:53:37.589Z,26.20
2018-06-28T09:56:05.366Z,26.50
2018-06-28T10:01:00.716Z,26.70
2018-06-28T10:03:28.000Z,26.40
2018-06-28T10:05:55.813Z,26.00
2018-06-28T10:08:23.150Z,26.10
2018-06-28T10:10:50.464Z,26.20
2018-06-28T10:13:19.269Z,26.30
2018-06-28T10:15:46.502Z,26.40
2018-06-28T10:18:14.771Z,26.50
2018-06-28T10:20:42.014Z,26.60
2018-06-28T10:23:09.737Z,26.60
2018-06-28T10:25:37.090Z,26.60
2018-06-28T10:30:32.269Z,26.20
2018-06-28T10:33:00.002Z,26.40
2018-06-28T10:35:27.227Z,26.60
2018-06-28T10:37:54.430Z,26.90
2018-06-28T10:40:21.653Z,27.10
2018-06-28T10:42:48.990Z,27.30
2018-06-28T10:45:16.291Z,27.20
2018-06-28T10:47:43.765Z,27.20
2018-06-28T10:50:11.344Z,27.10
2018-06-28T10:52:38.625Z,26.90
2018-06-28T10:55:05.963Z,27.00
2018-06-28T10:57:33.333Z,26.80
2018-06-28T11:00:01.192Z,26.70
2018-06-28T11:02:28.562Z,26.80
2018-06-28T11:04:55.845Z,27.20
2018-06-28T11:07:23.795Z,27.50
2018-06-28T11:09:52.268Z,27.70
2018-06-28T11:12:20.220Z,27.90
2018-06-28T11:14:48.134Z,27.80
2018-06-28T11:19:42.867Z,27.20
2018-06-28T11:22:10.223Z,27.00
2018-06-28T11:24:37.761Z,27.30
2018-06-28T11:27:05.909Z,27.70
2018-06-28T11:29:33.293Z,27.50
2018-06-28T11:32:00.550Z,27.40
2018-06-28T11:34:27.809Z,27.60
2018-06-28T11:36:54.995Z,27.90
2018-06-28T11:39:22.779Z,27.90
2018-06-28T11:41:50.169Z,28.30
2018-06-28T11:44:19.827Z,28.40
2018-06-28T11:46:49.181Z,28.20
2018-06-28T11:49:17.257Z,28.10
2018-06-28T11:51:44.501Z,28.10
2018-06-28T11:54:11.806Z,28.30
2018-06-28T11:56:39.967Z,28.50
2018-06-28T11:59:07.225Z,28.50
2018-06-28T12:01:35.573Z,28.70
2018-06-28T12:04:03.147Z,28.60
2018-06-28T12:06:30.398Z,28.50
2018-06-28T12:08:58.961Z,28.70
2018-06-28T12:11:26.207Z,28.90
2018-06-28T12:13:53.437Z,29.00
2018-06-28T12:16:20.799Z,29.20
2018-06-28T12:18:47.955Z,29.10
2018-06-28T12:21:15.139Z,29.20
2018-06-28T12:23:42.326Z,29.40
2018-06-28T12:26:10.457Z,29.50
2018-06-28T12:28:37.914Z,29.40
2018-06-28T12:31:05.309Z,29.00
2018-06-28T12:33:32.906Z,28.60
2018-06-28T12:36:01.206Z,28.50
2018-06-28T12:38:31.529Z,28.60
2018-06-28T12:40:58.912Z,28.70
2018-06-28T12:43:29.271Z,28.70
2018-06-28T12:45:57.449Z,28.70
2018-06-28T12:48:24.649Z,28.50
2018-06-28T12:50:52.334Z,28.50
2018-06-28T12:53:19.875Z,28.40
2018-06-28T12:56:50.851Z,28.30
2018-06-28T12:59:20.792Z,28.40
2018-06-28T13:01:48.967Z,28.50
2018-06-28T13:04:16.674Z,28.70
2018-06-28T13:06:43.869Z,28.80
2018-06-28T13:09:13.405Z,28.80
2018-06-28T13:11:40.579Z,28.90
2018-06-28T13:14:07.832Z,29.20
2018-06-28T13:16:35.075Z,29.50
2018-06-28T13:19:02.299Z,29.70
2018-06-28T13:24:00.659Z,29.90
2018-06-28T13:26:28.251Z,30.00
2018-06-28T13:28:55.479Z,29.70
2018-06-28T13:31:22.870Z,29.40
2018-06-28T13:33:50.742Z,29.10
2018-06-28T13:36:18.127Z,29.10
2018-06-28T13:38:45.538Z,29.20
2018-06-28T13:41:13.581Z,29.20
2018-06-28T13:43:41.240Z,29.50
2018-06-28T13:46:08.703Z,29.90
2018-06-28T13:48:36.935Z,30.30
2018-06-28T13:51:04.288Z,30.60
2018-06-28T13:53:31.480Z,30.50
2018-06-28T13:55:59.113Z,30.10
2018-06-28T13:58:26.336Z,29.50
2018-06-28T14:00:53.731Z,29.00
2018-06-28T14:03:21.049Z,28.70
2018-06-28T14:05:48.169Z,28.70
2018-06-28T14:08:15.595Z,28.50
2018-06-28T14:13:10.072Z,28.30
2018-06-28T14:15:37.290Z,28.30
2018-06-28T14:18:04.591Z,28.30
2018-06-28T14:20:32.829Z,28.30
2018-06-28T14:23:00.143Z,28.20
2018-06-28T14:25:27.408Z,28.50
2018-06-28T14:27:54.649Z,28.90
2018-06-28T14:30:22.196Z,29.40
2018-06-28T14:32:49.391Z,29.80
2018-06-28T14:35:17.572Z,29.60
2018-06-28T14:37:44.977Z,29.30
2018-06-28T14:40:12.370Z,29.00
2018-06-28T14:42:39.682Z,28.80
2018-06-28T14:45:07.151Z,28.70
2018-06-28T14:47:34.417Z,28.60
2018-06-28T14:50:02.380Z,28.60
2018-06-28T14:52:30.510Z,28.50
2018-06-28T14:54:59.429Z,28.40
2018-06-28T14:57:26.573Z,28.60
2018-06-28T14:59:54.408Z,29.10
2018-06-28T15:04:50.519Z,30.20
2018-06-28T15:07:17.704Z,30.50
2018-06-28T15:09:45.214Z,30.20
2018-06-28T15:12:12.392Z,29.70
2018-06-28T15:14:39.807Z,29.40
2018-06-28T15:17:07.321Z,29.10
2018-06-28T15:19:35.640Z,29.00
2018-06-28T15:22:04.045Z,28.90
2018-06-28T15:24:31.620Z,28.80
2018-06-28T15:26:58.890Z,28.70
2018-06-28T15:29:26.161Z,28.60
2018-06-28T15:31:53.466Z,28.50
2018-06-28T15:36:48.599Z,29.50
2018-06-28T15:39:15.942Z,29.90
2018-06-28T15:41:44.072Z,30.10
2018-06-28T15:44:11.371Z,30.00
2018-06-28T15:46:38.640Z,30.10
2018-06-28T15:49:06.733Z,30.40
2018-06-28T15:51:33.964Z,30.50
2018-06-28T15:54:01.802Z,30.70
2018-06-28T15:56:29.263Z,30.90
2018-06-28T15:58:57.149Z,30.90
2018-06-28T16:01:24.696Z,30.50
2018-06-28T16:03:51.964Z,30.50
2018-06-28T16:06:19.330Z,30.50
2018-06-28T16:08:46.467Z,30.30
2018-06-28T16:11:13.881Z,30.40
2018-06-28T16:13:41.249Z,30.50
2018-06-28T16:16:09.102Z,30.60
2018-06-28T16:18:38.160Z,30.90
2018-06-28T16:21:07.691Z,31.30
2018-06-28T16:23:35.487Z,31.10
2018-06-28T16:26:02.804Z,31.30
2018-06-28T16:28:31.717Z,31.30
2018-06-28T16:33:27.008Z,31.60
2018-06-28T16:35:54.412Z,31.70
2018-06-28T16:55:06.546Z,31.80
2018-06-28T16:57:33.776Z,31.80
2018-06-28T17:00:01.813Z,31.90
2018-06-28T17:02:29.636Z,31.90
2018-06-28T17:04:58.446Z,31.50
2018-06-28T17:07:25.802Z,31.20
2018-06-28T17:09:52.989Z,31.20
2018-06-28T17:12:20.239Z,31.10
2018-06-28T17:14:47.638Z,31.20
2018-06-28T17:17:14.762Z,31.30
2018-06-28T17:19:42.548Z,31.40
2018-06-28T17:24:37.150Z,31.10
2018-06-28T17:27:04.298Z,30.90
2018-06-28T17:29:32.288Z,30.90
2018-06-28T17:31:59.616Z,31.00
2018-06-28T17:34:26.952Z,30.90
2018-06-28T17:36:54.125Z,30.60
2018-06-28T17:39:21.483Z,30.30
2018-06-28T17:41:48.603Z,30.40
2018-06-28T17:44:15.765Z,30.60
2018-06-28T17:46:43.034Z,30.80
2018-06-28T17:49:10.234Z,30.80
2018-06-28T17:54:04.756Z,30.60
2018-06-28T17:56:32.092Z,30.40
2018-06-28T17:58:59.240Z,30.30
2018-06-28T18:01:27.145Z,30.20
2018-06-28T18:03:54.309Z,30.10
2018-06-28T18:06:21.456Z,29.90
2018-06-28T18:08:48.873Z,29.90
2018-06-28T18:11:16.000Z,29.80
2018-06-28T18:13:43.217Z,29.80
2018-06-28T18:33:12.036Z,29.40
2018-06-28T18:35:40.549Z,29.50
2018-06-28T18:38:07.936Z,29.40
2018-06-28T18:40:35.208Z,29.40
2018-06-28T18:43:02.455Z,29.40
2018-06-28T18:47:57.680Z,29.10
2018-06-28T18:50:25.877Z,29.00
2018-06-28T18:52:53.204Z,29.00
2018-06-28T18:55:20.533Z,29.00
2018-06-28T18:57:49.229Z,28.80
2018-06-28T19:00:16.531Z,28.50
2018-06-28T19:05:10.957Z,28.10
2018-06-28T19:07:38.206Z,28.00
2018-06-28T19:10:12.215Z,27.90
2018-06-28T19:12:39.497Z,27.90
2018-06-28T19:15:12.393Z,27.80
2018-06-28T19:17:40.164Z,27.80
2018-06-28T19:20:07.841Z,27.70
2018-06-28T19:22:41.606Z,27.70
2018-06-28T19:25:10.480Z,27.60
2018-06-28T19:27:37.884Z,27.60
2018-06-28T19:32:13.018Z,27.50
2018-06-28T19:34:40.280Z,27.40
2018-06-28T19:37:11.360Z,27.30
2018-06-28T19:39:44.610Z,27.20
2018-06-28T19:42:17.432Z,27.10
2018-06-28T19:44:52.128Z,27.00
2018-06-28T19:47:19.360Z,26.90
2018-06-28T19:49:52.226Z,26.90
